createdAt,value
2023-01-19T00:12:48.054Z,34.34
2023-01-19T00:14:47.875Z,34.32
2023-01-19T00:15:47.799Z,34.29
2023-01-19T00:16:47.710Z,34.32
2023-01-19T00:17:47.619Z,34.31
2023-01-19T00:18:47.539Z,34.35
2023-01-19T00:19:47.449Z,34.32
2023-01-19T00:20:47.366Z,34.34
2023-01-19T00:21:47.289Z,34.35
2023-01-19T00:22:47.193Z,34.35
2023-01-19T00:24:46.982Z,34.32
2023-01-19T00:25:46.892Z,34.36
2023-01-19T00:26:46.809Z,34.36
2023-01-19T00:27:46.732Z,34.35
2023-01-19T00:29:46.543Z,34.33
2023-01-19T00:30:46.514Z,34.31
2023-01-19T00:31:46.428Z,34.34
2023-01-19T00:32:46.324Z,34.36
2023-01-19T00:33:46.190Z,34.35
2023-01-19T00:34:46.075Z,34.35
2023-01-19T00:35:45.998Z,34.35
2023-01-19T00:36:45.904Z,34.35
2023-01-19T00:37:45.834Z,34.36
2023-01-19T00:38:45.763Z,34.36
2023-01-19T00:39:45.647Z,34.35
2023-01-19T00:40:45.529Z,34.38
2023-01-19T01:40:39.658Z,34.42
2023-01-19T01:41:39.547Z,34.41
2023-01-19T01:42:39.483Z,34.40
2023-01-19T01:43:39.361Z,34.41
2023-01-19T01:44:39.280Z,34.41
2023-01-19T01:45:39.209Z,34.42
2023-01-19T01:46:39.100Z,34.42
2023-01-19T01:47:39.014Z,34.40
2023-01-19T01:48:39.781Z,34.41
2023-01-19T01:49:38.828Z,34.39
2023-01-19T01:50:39.273Z,34.42
2023-01-19T01:51:38.580Z,34.44
2023-01-19T01:52:38.462Z,34.44
2023-01-19T01:53:38.340Z,34.44
2023-01-19T01:54:38.218Z,34.44
2023-01-19T01:55:38.125Z,34.43
2023-01-19T01:56:38.042Z,34.43
2023-01-19T01:57:37.955Z,34.43
2023-01-19T01:58:37.864Z,34.42
2023-01-19T01:59:37.773Z,34.44
2023-01-19T02:00:37.680Z,34.43
2023-01-19T02:01:37.704Z,34.43
2023-01-19T02:02:37.491Z,34.42
2023-01-19T02:03:37.480Z,34.43
2023-01-19T02:04:37.302Z,34.42
2023-01-19T02:05:37.198Z,34.42
2023-01-19T02:06:37.124Z,34.42
2023-01-19T02:07:37.036Z,34.42
2023-01-19T02:08:36.949Z,34.41
2023-01-19T02:09:36.850Z,34.41
2023-01-19T02:10:36.761Z,34.41
2023-01-19T02:11:36.664Z,34.41
2023-01-19T02:12:36.583Z,34.41
2023-01-19T02:13:36.490Z,34.41
2023-01-19T02:14:36.407Z,34.43
2023-01-19T02:15:36.314Z,34.42
2023-01-19T02:16:36.268Z,34.42
2023-01-19T02:17:36.223Z,34.42
2023-01-19T02:18:36.063Z,34.42
2023-01-19T02:19:35.986Z,34.42
2023-01-19T02:20:35.909Z,34.41
2023-01-19T02:21:35.802Z,34.42
2023-01-19T02:22:35.702Z,34.43
2023-01-19T02:23:35.644Z,34.44
2023-01-19T03:17:29.426Z,34.04
2023-01-19T03:19:29.169Z,33.98
2023-01-19T03:21:28.890Z,34.00
2023-01-19T03:22:28.739Z,33.97
2023-01-19T03:23:28.618Z,33.96
2023-01-19T03:24:28.482Z,33.96
2023-01-19T03:25:28.345Z,33.94
2023-01-19T03:26:28.203Z,33.96
2023-01-19T03:27:28.058Z,33.92
2023-01-19T03:28:27.916Z,33.93
2023-01-19T03:29:27.776Z,33.92
2023-01-19T03:30:27.639Z,33.96
2023-01-19T03:31:27.501Z,33.95
2023-01-19T03:32:27.352Z,33.95
2023-01-19T03:33:27.307Z,33.94
2023-01-19T03:34:27.097Z,33.98
2023-01-19T03:35:26.943Z,33.94
2023-01-19T03:36:26.795Z,33.93
2023-01-19T03:37:26.651Z,33.93
2023-01-19T03:38:26.518Z,33.94
2023-01-19T03:40:26.227Z,33.97
2023-01-19T03:41:26.103Z,33.96
2023-01-19T03:42:25.957Z,33.96
2023-01-19T03:43:25.816Z,33.97
2023-01-19T03:44:25.673Z,33.98
2023-01-19T03:45:25.529Z,33.96
2023-01-19T04:35:18.776Z,33.98
2023-01-19T04:36:18.648Z,33.99
2023-01-19T04:37:18.520Z,33.98
2023-01-19T04:38:18.374Z,34.00
2023-01-19T04:40:18.119Z,34.01
2023-01-19T04:41:17.991Z,33.97
2023-01-19T04:42:17.860Z,33.97
2023-01-19T04:43:17.726Z,33.99
2023-01-19T04:44:17.578Z,33.99
2023-01-19T04:45:17.486Z,34.00
2023-01-19T04:46:17.362Z,34.00
2023-01-19T04:47:17.186Z,34.01
2023-01-19T04:48:17.057Z,34.00
2023-01-19T04:49:16.917Z,34.00
2023-01-19T04:50:16.786Z,34.03
2023-01-19T04:51:16.649Z,34.01
2023-01-19T04:52:16.513Z,33.99
2023-01-19T04:53:16.396Z,33.99
2023-01-19T04:54:16.314Z,33.99
2023-01-19T04:55:16.134Z,34.01
2023-01-19T04:56:15.997Z,33.99
2023-01-19T04:57:15.864Z,33.97
2023-01-19T04:58:15.736Z,33.99
2023-01-19T04:59:15.653Z,33.98
2023-01-19T05:54:08.265Z,34.02
2023-01-19T05:55:08.152Z,33.98
2023-01-19T05:56:07.994Z,34.00
2023-01-19T05:57:07.865Z,33.98
2023-01-19T05:58:07.713Z,34.01
2023-01-19T05:59:07.589Z,34.00
2023-01-19T06:00:07.451Z,34.01
2023-01-19T06:01:07.354Z,34.00
2023-01-19T06:02:07.338Z,34.01
2023-01-19T06:03:07.093Z,33.99
2023-01-19T06:04:06.907Z,34.02
2023-01-19T06:05:06.773Z,34.01
2023-01-19T06:06:06.637Z,34.01
2023-01-19T06:07:06.510Z,33.98
2023-01-19T06:08:06.367Z,34.01
2023-01-19T06:09:06.219Z,34.02
2023-01-19T06:10:06.085Z,34.01
2023-01-19T06:11:06.838Z,34.00
2023-01-19T06:12:05.806Z,33.98
2023-01-19T06:13:05.659Z,34.00
2023-01-19T06:14:05.528Z,34.02
2023-01-19T06:27:57.854Z,36.95
2023-01-19T06:28:57.738Z,40.64
2023-01-19T06:29:57.750Z,35.75
2023-01-19T06:30:57.801Z,35.63
2023-01-19T06:31:57.810Z,37.23
2023-01-19T06:32:57.892Z,35.72
2023-01-19T06:34:57.021Z,42.72
2023-01-19T06:35:57.012Z,36.82
2023-01-19T06:36:57.611Z,36.14
2023-01-19T06:37:58.710Z,36.04
2023-01-19T06:38:57.026Z,36.13
2023-01-19T06:39:56.989Z,36.18
2023-01-19T06:40:56.986Z,36.33
2023-01-19T06:41:56.998Z,36.53
2023-01-19T06:42:56.991Z,36.65
2023-01-19T06:43:57.002Z,36.75
2023-01-19T06:44:57.698Z,36.87
2023-01-19T06:45:57.000Z,37.04
2023-01-19T06:47:14.979Z,37.12
2023-01-19T06:47:57.961Z,37.29
2023-01-19T06:48:56.985Z,37.43
2023-01-19T06:49:56.961Z,37.63
2023-01-19T06:50:58.715Z,37.75
2023-01-19T06:51:56.931Z,37.92
2023-01-19T06:52:56.933Z,38.09
2023-01-19T06:53:56.911Z,38.21
2023-01-19T06:54:56.927Z,38.26
2023-01-19T06:55:57.701Z,38.50
2023-01-19T06:56:56.885Z,38.54
2023-01-19T06:57:56.881Z,38.62
2023-01-19T06:58:56.870Z,38.78
2023-01-19T06:59:56.866Z,38.89
2023-01-19T07:00:56.921Z,38.98
2023-01-19T07:01:57.058Z,39.09
2023-01-19T07:02:56.817Z,39.22
2023-01-19T07:03:56.797Z,39.66
2023-01-19T07:04:56.855Z,39.56
2023-01-19T07:05:56.764Z,39.83
2023-01-19T07:06:56.747Z,39.93
2023-01-19T07:07:56.995Z,39.89
2023-01-19T07:08:56.729Z,40.05
2023-01-19T07:09:56.704Z,40.33
2023-01-19T07:11:25.749Z,40.39
2023-01-19T07:11:57.689Z,40.55
2023-01-19T07:12:57.199Z,40.67
2023-01-19T07:13:56.653Z,40.74
2023-01-19T07:14:56.640Z,40.94
2023-01-19T07:15:56.689Z,41.14
2023-01-19T07:16:56.688Z,41.32
2023-01-19T07:17:56.607Z,41.42
2023-01-19T07:18:56.596Z,41.54
2023-01-19T07:19:56.580Z,41.63
2023-01-19T07:21:56.548Z,43.37
2023-01-19T07:22:56.554Z,43.00
2023-01-19T07:23:56.520Z,42.63
2023-01-19T07:24:58.234Z,42.80
2023-01-19T07:25:56.536Z,42.83
2023-01-19T07:26:59.217Z,43.46
2023-01-19T07:27:57.207Z,43.22
2023-01-19T07:28:57.170Z,42.97
2023-01-19T07:29:56.539Z,43.03
2023-01-19T07:30:56.655Z,42.94
2023-01-19T07:31:56.498Z,43.02
2023-01-19T07:32:56.478Z,42.98
2023-01-19T07:33:56.450Z,43.18
2023-01-19T07:34:56.445Z,43.17
2023-01-19T07:35:58.229Z,43.18
2023-01-19T07:36:56.410Z,43.37
2023-01-19T07:37:57.386Z,43.63
2023-01-19T07:38:56.360Z,43.73
2023-01-19T07:39:56.355Z,43.85
2023-01-19T07:40:56.334Z,43.91
2023-01-19T07:41:56.316Z,43.97
2023-01-19T07:42:56.327Z,44.18
2023-01-19T07:43:56.288Z,44.17
2023-01-19T07:44:57.214Z,44.28
2023-01-19T07:45:56.272Z,44.43
2023-01-19T07:46:56.237Z,44.43
2023-01-19T07:47:56.276Z,44.62
2023-01-19T07:48:56.212Z,44.65
2023-01-19T07:49:57.745Z,44.92
2023-01-19T07:50:56.188Z,44.77
2023-01-19T07:51:56.172Z,44.96
2023-01-19T07:52:56.726Z,45.08
2023-01-19T07:53:56.237Z,45.27
2023-01-19T07:54:56.277Z,45.41
2023-01-19T07:55:56.289Z,45.35
2023-01-19T07:56:56.548Z,45.46
2023-01-19T07:57:57.307Z,45.55
2023-01-19T07:58:56.251Z,45.58
2023-01-19T07:59:56.249Z,45.74
2023-01-19T08:00:56.323Z,45.75
2023-01-19T08:01:58.102Z,45.85
2023-01-19T08:02:56.160Z,45.96
2023-01-19T08:03:56.148Z,45.99
2023-01-19T08:04:56.233Z,46.06
2023-01-19T08:05:56.163Z,46.13
2023-01-19T08:06:56.206Z,46.24
2023-01-19T08:07:56.238Z,46.29
2023-01-19T08:08:56.248Z,46.37
2023-01-19T08:09:56.244Z,46.48
2023-01-19T08:10:56.290Z,46.50
2023-01-19T08:11:56.287Z,46.77
2023-01-19T08:12:56.327Z,46.80
2023-01-19T08:13:56.301Z,46.85
2023-01-19T08:14:56.307Z,46.91
2023-01-19T08:15:56.818Z,47.05
2023-01-19T08:16:56.318Z,47.25
2023-01-19T08:17:56.327Z,47.42
2023-01-19T08:18:56.383Z,47.33
2023-01-19T08:19:56.337Z,47.21
2023-01-19T08:20:56.366Z,47.01
2023-01-19T08:21:56.360Z,46.83
2023-01-19T08:22:57.339Z,46.72
2023-01-19T08:23:56.426Z,46.64
2023-01-19T08:24:56.306Z,46.48
2023-01-19T08:25:56.290Z,46.52
2023-01-19T08:26:56.271Z,46.44
2023-01-19T08:27:56.248Z,46.39
2023-01-19T08:28:56.230Z,46.40
2023-01-19T08:29:56.218Z,46.33
2023-01-19T08:30:56.350Z,46.26
2023-01-19T08:31:56.291Z,46.19
2023-01-19T08:32:56.219Z,46.11
2023-01-19T08:33:56.216Z,46.08
2023-01-19T08:34:56.205Z,46.04
2023-01-19T08:35:56.225Z,45.99
2023-01-19T08:36:56.217Z,46.04
2023-01-19T08:37:56.232Z,45.95
2023-01-19T08:38:56.216Z,46.02
2023-01-19T08:39:56.210Z,45.94
2023-01-19T08:40:56.208Z,45.86
2023-01-19T08:41:56.207Z,45.85
2023-01-19T08:42:56.220Z,45.81
2023-01-19T08:43:56.211Z,45.81
2023-01-19T08:44:58.495Z,45.74
2023-01-19T08:45:56.399Z,45.79
2023-01-19T08:46:56.288Z,45.72
2023-01-19T08:47:56.285Z,45.68
2023-01-19T08:48:56.282Z,45.64
2023-01-19T08:49:56.301Z,45.74
2023-01-19T08:50:56.319Z,45.55
2023-01-19T08:51:56.307Z,45.54
2023-01-19T08:52:56.326Z,45.65
2023-01-19T08:53:56.368Z,45.63
2023-01-19T08:54:56.356Z,45.57
2023-01-19T08:55:56.367Z,45.60
2023-01-19T08:56:56.383Z,45.55
2023-01-19T08:57:56.394Z,45.53
2023-01-19T08:59:08.146Z,45.42
2023-01-19T08:59:57.408Z,45.47
2023-01-19T09:00:56.428Z,45.44
2023-01-19T09:01:56.581Z,45.35
2023-01-19T09:02:56.451Z,45.29
2023-01-19T09:03:56.367Z,45.33
2023-01-19T09:04:56.348Z,45.30
2023-01-19T09:05:56.338Z,45.26
2023-01-19T09:06:56.337Z,45.25
2023-01-19T09:07:56.335Z,45.23
2023-01-19T09:08:56.312Z,45.27
2023-01-19T09:09:56.318Z,45.22
2023-01-19T09:10:56.298Z,45.18
2023-01-19T09:11:56.311Z,45.15
2023-01-19T09:12:56.291Z,45.18
2023-01-19T09:13:56.307Z,44.49
2023-01-19T09:14:56.343Z,44.69
2023-01-19T09:15:56.325Z,44.47
2023-01-19T09:16:56.297Z,44.34
2023-01-19T09:17:56.275Z,44.36
2023-01-19T09:18:56.306Z,44.27
2023-01-19T09:19:56.271Z,44.24
2023-01-19T09:20:56.262Z,44.29
2023-01-19T09:21:56.289Z,44.26
2023-01-19T09:22:56.289Z,44.22
2023-01-19T09:23:56.275Z,44.15
2023-01-19T09:24:56.277Z,44.14
2023-01-19T09:25:56.277Z,44.12
2023-01-19T09:26:56.293Z,44.00
2023-01-19T09:27:56.280Z,43.97
2023-01-19T09:28:56.283Z,43.91
2023-01-19T09:29:56.316Z,43.88
2023-01-19T09:30:56.377Z,43.84
2023-01-19T09:31:56.474Z,43.85
2023-01-19T09:33:56.308Z,43.78
2023-01-19T09:34:58.174Z,43.78
2023-01-19T09:35:56.300Z,43.75
2023-01-19T09:36:56.312Z,43.69
2023-01-19T09:37:57.203Z,43.68
2023-01-19T09:38:57.251Z,43.63
2023-01-19T09:39:56.405Z,43.63
2023-01-19T09:40:57.249Z,43.62
2023-01-19T09:41:56.289Z,43.60
2023-01-19T09:42:56.277Z,43.57
2023-01-19T09:43:56.266Z,43.59
2023-01-19T09:44:56.263Z,43.56
2023-01-19T09:45:56.255Z,43.60
2023-01-19T09:46:57.771Z,43.52
2023-01-19T09:47:56.249Z,43.45
2023-01-19T09:48:56.229Z,43.51
2023-01-19T09:49:56.251Z,43.52
2023-01-19T09:50:56.224Z,43.49
2023-01-19T09:51:56.232Z,43.41
2023-01-19T09:52:56.252Z,43.40
2023-01-19T09:53:56.233Z,43.41
2023-01-19T09:54:56.193Z,43.39
2023-01-19T09:55:56.191Z,43.39
2023-01-19T09:56:56.228Z,43.38
2023-01-19T09:57:56.195Z,43.31
2023-01-19T09:58:56.229Z,43.29
2023-01-19T09:59:57.172Z,43.25
2023-01-19T10:00:56.323Z,43.25
2023-01-19T10:01:56.363Z,43.21
2023-01-19T10:02:56.350Z,43.23
2023-01-19T10:03:56.315Z,43.17
2023-01-19T10:04:56.339Z,43.20
2023-01-19T10:05:56.368Z,43.12
2023-01-19T10:06:56.379Z,43.10
2023-01-19T10:07:56.425Z,43.11
2023-01-19T10:08:57.174Z,43.09
2023-01-19T10:09:56.473Z,43.05
2023-01-19T10:10:56.497Z,43.04
2023-01-19T10:11:56.553Z,42.98
2023-01-19T10:12:56.541Z,42.93
2023-01-19T10:13:56.571Z,42.88
2023-01-19T10:14:56.636Z,42.92
2023-01-19T10:15:56.801Z,42.86
2023-01-19T10:16:56.653Z,42.85
2023-01-19T10:17:56.717Z,42.82
2023-01-19T10:18:56.703Z,42.82
2023-01-19T10:19:56.729Z,42.82
2023-01-19T10:20:56.752Z,42.81
2023-01-19T10:21:56.776Z,42.81
2023-01-19T10:22:56.796Z,42.74
2023-01-19T10:23:56.851Z,42.75
2023-01-19T10:24:56.835Z,42.74
2023-01-19T10:25:57.848Z,42.73
2023-01-19T10:26:56.899Z,42.72
2023-01-19T10:27:56.955Z,42.69
2023-01-19T10:28:56.975Z,42.70
2023-01-19T10:29:57.039Z,42.58
2023-01-19T10:30:57.079Z,42.62
2023-01-19T10:31:57.071Z,42.61
2023-01-19T10:32:57.074Z,42.60
2023-01-19T10:33:57.102Z,42.57
2023-01-19T10:34:57.144Z,42.53
2023-01-19T10:35:57.215Z,42.50
2023-01-19T10:36:57.192Z,42.49
2023-01-19T10:37:57.286Z,42.50
2023-01-19T10:38:57.302Z,42.43
2023-01-19T10:39:57.296Z,42.42
2023-01-19T10:40:57.363Z,42.41
2023-01-19T10:41:57.369Z,42.40
2023-01-19T10:42:57.442Z,42.37
2023-01-19T10:43:57.579Z,42.29
2023-01-19T10:44:57.450Z,42.26
2023-01-19T10:45:57.605Z,42.23
2023-01-19T10:46:57.515Z,42.23
2023-01-19T10:47:57.552Z,42.25
2023-01-19T10:48:57.575Z,42.24
2023-01-19T10:49:58.271Z,42.24
2023-01-19T10:50:57.700Z,42.19
2023-01-19T10:51:57.685Z,42.21
2023-01-19T10:52:57.713Z,42.17
2023-01-19T10:53:57.761Z,42.19
2023-01-19T10:54:57.761Z,42.17
2023-01-19T10:55:57.781Z,42.13
2023-01-19T10:56:57.851Z,42.08
2023-01-19T10:57:57.855Z,42.06
2023-01-19T10:58:57.884Z,42.07
2023-01-19T10:59:57.900Z,42.03
2023-01-19T11:00:58.036Z,42.00
2023-01-19T11:01:58.108Z,42.02
2023-01-19T11:02:58.120Z,42.00
2023-01-19T11:03:58.099Z,41.96
2023-01-19T11:04:58.069Z,41.96
2023-01-19T11:05:58.088Z,41.94
2023-01-19T11:06:58.135Z,41.92
2023-01-19T11:08:58.197Z,41.91
2023-01-19T11:09:58.238Z,41.89
2023-01-19T11:10:58.253Z,41.89
2023-01-19T11:11:58.293Z,42.02
2023-01-19T11:12:58.618Z,41.95
2023-01-19T11:13:58.344Z,41.77
2023-01-19T14:27:05.554Z,42.10
2023-01-19T14:28:05.628Z,42.08
2023-01-19T14:29:05.678Z,42.06
2023-01-19T14:30:05.716Z,42.07
2023-01-19T14:31:05.863Z,42.03
2023-01-19T14:32:05.844Z,42.02
2023-01-19T14:33:05.883Z,42.01
2023-01-19T14:34:05.950Z,42.03
2023-01-19T14:35:06.376Z,41.99
2023-01-19T14:36:06.071Z,41.99
2023-01-19T14:37:06.127Z,41.95
2023-01-19T14:38:06.198Z,41.99
2023-01-19T14:39:06.246Z,41.87
2023-01-19T14:50:06.921Z,41.72
2023-01-19T14:51:06.965Z,41.69
2023-01-19T14:52:07.032Z,41.71
2023-01-19T14:53:07.089Z,41.73
2023-01-19T14:54:07.153Z,41.67
2023-01-19T14:55:07.507Z,41.68
2023-01-19T14:56:07.285Z,41.63
2023-01-19T14:57:07.348Z,41.65
2023-01-19T14:58:07.396Z,41.67
2023-01-19T14:59:07.471Z,41.61
2023-01-19T15:00:07.734Z,41.60
2023-01-19T15:01:07.886Z,41.58
2023-01-19T15:03:07.721Z,41.57
2023-01-19T15:05:08.183Z,41.56
2023-01-19T15:07:07.844Z,41.54
2023-01-19T15:08:07.845Z,41.51
2023-01-19T15:09:07.849Z,41.50
2023-01-19T15:10:07.889Z,41.45
2023-01-19T17:55:15.604Z,40.05
2023-01-19T17:56:15.552Z,40.03
2023-01-19T17:57:16.559Z,40.03
2023-01-19T17:58:15.566Z,40.01
2023-01-19T17:59:15.572Z,39.99
2023-01-19T18:00:15.616Z,39.98
2023-01-19T18:01:15.668Z,39.97
2023-01-19T18:02:15.663Z,39.94
2023-01-19T18:03:15.586Z,39.94
2023-01-19T18:04:15.607Z,39.94
2023-01-19T18:05:15.623Z,39.95
2023-01-19T18:06:15.684Z,39.91
2023-01-19T18:07:15.686Z,39.92
2023-01-19T18:08:15.711Z,39.93
2023-01-19T18:09:15.751Z,39.93
2023-01-19T18:10:16.064Z,39.88
2023-01-19T18:11:15.873Z,39.89
2023-01-19T18:12:15.956Z,39.87
2023-01-19T18:19:16.204Z,39.87
2023-01-19T18:24:16.417Z,39.77
2023-01-19T18:25:16.429Z,39.81
2023-01-19T18:26:16.465Z,39.79
2023-01-19T18:27:16.468Z,39.78
2023-01-19T18:28:16.496Z,39.77
2023-01-19T18:29:16.592Z,39.78
2023-01-19T18:30:16.680Z,39.77
2023-01-19T18:31:16.793Z,39.77
2023-01-19T18:32:16.847Z,39.76
2023-01-19T18:33:16.872Z,39.73
2023-01-19T18:34:16.864Z,39.74
2023-01-19T18:35:16.884Z,39.71
2023-01-19T18:36:16.895Z,39.70
2023-01-19T18:37:16.916Z,39.68
2023-01-19T18:38:16.949Z,39.70
2023-01-19T18:39:17.031Z,39.66
2023-01-19T18:40:17.149Z,39.72
2023-01-19T18:41:17.219Z,39.68
2023-01-19T18:42:17.320Z,39.67
2023-01-19T18:43:17.409Z,39.64
2023-01-19T18:44:17.515Z,39.65
2023-01-19T18:45:17.595Z,39.65
2023-01-19T18:46:17.714Z,39.61
2023-01-19T18:47:17.779Z,39.60
2023-01-19T18:48:18.144Z,39.61
2023-01-19T18:49:17.970Z,39.60
2023-01-19T18:50:18.069Z,39.61
2023-01-19T18:51:18.155Z,39.60
2023-01-19T18:52:18.276Z,39.60
2023-01-19T18:53:18.347Z,39.58
2023-01-19T18:54:18.438Z,39.59
2023-01-19T18:55:18.539Z,39.58
2023-01-19T18:56:18.631Z,39.54
2023-01-19T18:57:18.726Z,39.59
2023-01-19T18:58:18.825Z,39.53
2023-01-19T18:59:18.929Z,39.54
2023-01-19T19:00:19.023Z,39.55
2023-01-19T19:01:19.096Z,39.52
2023-01-19T19:02:19.073Z,39.50
2023-01-19T19:03:19.051Z,39.52
2023-01-19T19:04:19.039Z,39.51
2023-01-19T19:05:19.125Z,39.51
2023-01-19T19:06:19.177Z,39.51
2023-01-19T19:07:19.174Z,39.49
2023-01-19T19:08:19.174Z,39.47
2023-01-19T19:09:19.201Z,39.49
2023-01-19T19:10:19.196Z,39.46
2023-01-19T19:11:19.200Z,39.46
2023-01-19T19:12:19.254Z,39.48
2023-01-19T19:13:19.286Z,39.44
2023-01-19T19:14:19.289Z,39.44
2023-01-19T19:15:19.307Z,39.47
2023-01-19T19:16:19.436Z,39.44
2023-01-19T19:17:19.344Z,39.41
2023-01-19T19:18:19.367Z,39.42
2023-01-19T19:19:19.445Z,39.37
2023-01-19T19:20:19.552Z,39.38
2023-01-19T19:21:19.586Z,39.39
2023-01-19T19:22:19.627Z,39.39
2023-01-19T19:23:19.652Z,39.41
2023-01-19T19:24:19.714Z,39.37
2023-01-19T19:25:19.742Z,39.37
2023-01-19T19:26:19.746Z,39.38
2023-01-19T19:27:19.753Z,39.35
2023-01-19T19:28:19.857Z,39.36
2023-01-19T19:29:19.857Z,39.32
2023-01-19T19:30:19.946Z,39.35
2023-01-19T19:31:19.940Z,39.34
2023-01-19T19:32:19.915Z,39.32
2023-01-19T19:33:19.935Z,39.29
2023-01-19T19:34:20.895Z,39.34
2023-01-19T19:35:19.959Z,39.30
2023-01-19T19:36:20.100Z,39.28
2023-01-19T20:35:21.403Z,38.89
2023-01-19T20:36:21.432Z,38.90
2023-01-19T20:37:21.440Z,38.90
2023-01-19T20:38:21.433Z,38.87
2023-01-19T20:39:21.446Z,38.85
2023-01-19T20:40:21.450Z,38.88
2023-01-19T20:41:21.451Z,38.87
2023-01-19T20:42:21.512Z,38.89
2023-01-19T20:43:21.604Z,38.87
2023-01-19T20:44:21.705Z,38.87
2023-01-19T20:45:21.824Z,38.89
2023-01-19T20:46:21.895Z,38.83
2023-01-19T20:47:21.880Z,38.84
2023-01-19T20:48:21.913Z,38.80
2023-01-19T20:49:21.951Z,38.78
2023-01-19T20:50:21.972Z,38.81
2023-01-19T20:51:22.016Z,38.77
2023-01-19T20:52:22.022Z,38.80
2023-01-19T20:53:22.071Z,38.79
2023-01-19T20:54:22.174Z,38.83
2023-01-19T20:55:22.249Z,38.74
2023-01-19T20:56:22.354Z,38.75
2023-01-19T20:57:22.362Z,38.76
2023-01-19T20:58:22.364Z,38.77
2023-01-19T20:59:22.369Z,38.74
2023-01-19T21:00:22.380Z,38.74
2023-01-19T21:01:22.434Z,38.74
2023-01-19T21:02:22.448Z,38.74
2023-01-19T21:03:22.446Z,38.73
2023-01-19T21:04:22.473Z,38.73
2023-01-19T21:05:22.483Z,38.70
2023-01-19T21:06:22.471Z,38.71
2023-01-19T21:07:22.478Z,38.70
2023-01-19T21:08:22.519Z,38.68
2023-01-19T21:09:22.543Z,38.67
2023-01-19T21:10:22.554Z,38.68
2023-01-19T21:11:22.573Z,38.69
2023-01-19T21:12:22.576Z,38.65
2023-01-19T21:13:22.595Z,38.69
2023-01-19T21:14:22.665Z,38.66
2023-01-19T21:15:22.749Z,38.64
2023-01-19T21:16:22.881Z,38.65
2023-01-19T21:17:22.942Z,38.70
2023-01-19T21:18:22.947Z,38.64
2023-01-19T21:19:22.960Z,38.66
2023-01-19T21:20:22.958Z,38.64
2023-01-19T21:21:30.213Z,38.64
2023-01-19T21:22:23.968Z,38.62
2023-01-19T21:23:22.951Z,38.62
2023-01-19T21:24:22.968Z,38.61
2023-01-19T21:25:22.957Z,38.60
2023-01-19T21:26:22.976Z,38.61
2023-01-19T21:27:22.978Z,38.59
2023-01-19T21:28:22.987Z,38.60
2023-01-19T21:29:22.978Z,38.59
2023-01-19T21:30:22.999Z,38.54
2023-01-19T21:31:23.423Z,38.57
2023-01-19T21:32:22.977Z,38.55
2023-01-19T21:33:22.975Z,38.55
2023-01-19T21:34:22.975Z,38.55
2023-01-19T21:35:22.983Z,38.54
2023-01-19T21:36:22.992Z,38.53
2023-01-19T21:37:22.980Z,38.51
2023-01-19T21:38:23.002Z,38.49
2023-01-19T21:39:22.995Z,38.51
2023-01-19T21:40:22.996Z,38.49
2023-01-19T21:41:23.043Z,38.50
2023-01-19T21:42:23.021Z,38.47
2023-01-19T21:43:23.084Z,38.49
2023-01-19T21:44:23.190Z,38.47
2023-01-19T21:45:23.270Z,38.49
2023-01-19T21:46:23.210Z,38.46
2023-01-19T21:47:23.213Z,38.45
2023-01-19T21:48:23.234Z,38.50
2023-01-19T21:49:23.241Z,38.46
2023-01-19T21:50:23.320Z,38.45
2023-01-19T21:51:23.420Z,38.46
2023-01-19T21:52:23.512Z,38.45
2023-01-19T21:53:23.613Z,38.45
2023-01-19T21:54:23.718Z,38.45
2023-01-19T21:55:23.735Z,38.42
2023-01-19T21:56:23.761Z,38.41
2023-01-19T21:57:23.767Z,38.43
2023-01-19T21:58:23.783Z,38.45
2023-01-19T21:59:23.813Z,38.42
2023-01-19T22:00:23.840Z,38.41
2023-01-19T22:01:24.133Z,38.38
2023-01-19T22:02:37.701Z,38.40
2023-01-19T22:03:24.992Z,38.39
2023-01-19T22:04:23.949Z,38.37
2023-01-19T22:05:23.984Z,38.37
2023-01-19T22:06:23.956Z,38.39
2023-01-19T22:07:23.970Z,38.40
2023-01-19T22:08:24.001Z,38.37
2023-01-19T22:09:23.987Z,38.34
2023-01-19T22:10:24.009Z,38.35
2023-01-19T22:11:24.011Z,38.37
2023-01-19T22:12:24.046Z,38.34
2023-01-19T22:13:24.024Z,38.32
2023-01-19T22:14:24.032Z,38.28
2023-01-19T22:15:24.121Z,38.31
2023-01-19T22:16:24.266Z,38.29
2023-01-19T22:17:24.311Z,38.32
2023-01-19T22:48:25.549Z,38.12
2023-01-19T22:49:25.566Z,38.11
2023-01-19T22:50:25.573Z,38.11
2023-01-19T22:51:25.600Z,38.12
2023-01-19T22:52:25.620Z,38.13
2023-01-19T22:53:25.648Z,38.09
2023-01-19T22:54:25.656Z,38.09
2023-01-19T22:55:25.664Z,38.10
2023-01-19T22:56:25.684Z,38.09
2023-01-19T22:57:25.679Z,38.07
2023-01-19T22:58:25.675Z,38.10
2023-01-19T22:59:25.756Z,38.06
2023-01-19T23:00:25.858Z,38.08
2023-01-19T23:01:26.098Z,38.10
2023-01-19T23:02:26.078Z,38.06
2023-01-19T23:03:26.099Z,38.03
2023-01-19T23:04:26.097Z,38.00
2023-01-19T23:05:26.120Z,38.03
2023-01-19T23:06:26.131Z,38.00
2023-01-19T23:13:26.314Z,37.99
2023-01-19T23:14:26.316Z,37.97
2023-01-19T23:15:26.371Z,37.99
2023-01-19T23:16:26.385Z,37.94
2023-01-19T23:17:26.497Z,38.03
2023-01-19T23:18:26.584Z,37.95
2023-01-19T23:19:26.619Z,37.97
2023-01-19T23:20:26.647Z,37.96
2023-01-19T23:21:26.706Z,37.92
2023-01-19T23:22:26.718Z,37.93
2023-01-19T23:23:26.733Z,37.92
2023-01-19T23:24:26.786Z,37.94
2023-01-19T23:25:26.845Z,37.90
2023-01-19T23:26:26.938Z,37.91
2023-01-19T23:27:27.048Z,37.92
2023-01-19T23:28:27.135Z,37.90
2023-01-19T23:29:27.237Z,37.88
2023-01-19T23:30:27.367Z,37.87
2023-01-19T23:31:27.459Z,37.91
2023-01-19T23:32:27.393Z,37.92
2023-01-19T23:33:27.395Z,37.91
2023-01-19T23:34:27.393Z,37.93
2023-01-19T23:35:27.426Z,37.86
2023-01-19T23:36:27.440Z,37.92
2023-01-19T23:37:27.472Z,37.90
2023-01-19T23:38:27.478Z,37.87
2023-01-19T23:39:27.521Z,37.88
2023-01-19T23:40:27.539Z,37.84
2023-01-19T23:41:27.570Z,37.88
2023-01-19T23:42:27.643Z,37.86
2023-01-19T23:43:27.662Z,37.85
2023-01-19T23:44:27.685Z,37.84
2023-01-19T23:45:27.703Z,37.83
2023-01-19T23:46:27.817Z,37.84
2023-01-19T23:47:27.809Z,37.82
2023-01-19T23:48:27.812Z,37.82
2023-01-19T23:49:27.864Z,37.84
